createdAt,value
2023-01-13T00:01:29.497Z,97.90
2023-01-13T00:03:57.436Z,97.90
2023-01-13T00:06:29.412Z,98.00
2023-01-13T00:08:58.100Z,97.70
2023-01-13T00:11:26.747Z,97.50
2023-01-13T00:13:54.762Z,97.60
2023-01-13T00:16:22.493Z,97.50
2023-01-13T00:18:51.461Z,97.40
2023-01-13T00:21:21.069Z,97.40
2023-01-13T00:23:50.453Z,97.20
2023-01-13T00:26:21.908Z,97.30
2023-01-13T00:28:49.547Z,97.30
2023-01-13T00:31:21.601Z,97.40
2023-01-13T00:33:51.749Z,97.30
2023-01-13T00:36:20.775Z,97.20
2023-01-13T00:38:48.667Z,97.10
2023-01-13T00:41:22.447Z,97.10
2023-01-13T00:43:49.965Z,97.20
2023-01-13T00:46:22.161Z,97.10
2023-01-13T00:48:50.019Z,97.30
2023-01-13T00:51:21.949Z,97.20
2023-01-13T00:53:50.358Z,97.10
2023-01-13T00:56:22.137Z,97.10
2023-01-13T00:59:02.137Z,97.10
2023-01-13T01:01:31.992Z,97.10
2023-01-13T01:03:59.746Z,97.00
2023-01-13T01:06:28.304Z,96.90
2023-01-13T01:08:56.355Z,96.80
2023-01-13T01:11:26.753Z,96.80
2023-01-13T01:13:56.018Z,96.80
2023-01-13T01:16:26.397Z,97.00
2023-01-13T01:18:56.051Z,96.90
2023-01-13T01:21:25.587Z,97.00
2023-01-13T01:23:53.076Z,96.90
2023-01-13T01:26:25.855Z,96.90
2023-01-13T01:28:54.105Z,96.90
2023-01-13T01:31:21.390Z,97.00
2023-01-13T01:33:49.560Z,97.00
2023-01-13T01:36:18.581Z,97.00
2023-01-13T01:38:49.919Z,96.90
2023-01-13T01:41:23.342Z,96.80
2023-01-13T01:44:21.512Z,96.70
2023-01-13T01:46:48.689Z,96.80
2023-01-13T01:49:25.672Z,96.60
2023-01-13T01:52:07.107Z,96.90
2023-01-13T01:54:52.577Z,96.80
2023-01-13T01:57:30.670Z,96.70
2023-01-13T02:00:01.368Z,96.80
2023-01-13T02:02:32.538Z,96.70
2023-01-13T02:05:02.790Z,96.90
2023-01-13T02:07:33.389Z,97.20
2023-01-13T02:10:04.334Z,97.20
2023-01-13T02:12:32.809Z,97.30
2023-01-13T02:15:05.516Z,97.40
2023-01-13T02:17:48.119Z,97.50
2023-01-13T02:20:26.213Z,97.40
2023-01-13T02:23:38.462Z,97.50
2023-01-13T02:26:36.578Z,97.60
2023-01-13T02:30:07.578Z,97.70
2023-01-13T02:32:51.020Z,97.60
2023-01-13T02:35:34.268Z,97.60
2023-01-13T02:38:03.142Z,97.50
2023-01-13T02:40:39.644Z,97.70
2023-01-13T02:43:47.770Z,97.60
2023-01-13T02:46:25.693Z,97.60
2023-01-13T02:48:56.190Z,97.80
2023-01-13T02:51:27.378Z,97.70
2023-01-13T02:54:08.885Z,97.70
2023-01-13T02:56:46.255Z,97.50
2023-01-13T02:59:14.531Z,97.40
2023-01-13T03:01:43.533Z,97.30
2023-01-13T03:04:51.116Z,97.20
2023-01-13T03:07:52.618Z,97.20
2023-01-13T03:10:33.738Z,97.20
2023-01-13T03:13:19.614Z,97.10
2023-01-13T03:15:55.541Z,97.00
2023-01-13T03:18:37.921Z,96.80
2023-01-13T03:21:09.703Z,96.80
2023-01-13T03:23:48.782Z,96.80
2023-01-13T03:26:29.031Z,96.70
2023-01-13T03:29:29.762Z,96.60
2023-01-13T03:32:14.447Z,96.60
2023-01-13T03:35:13.834Z,96.50
2023-01-13T03:37:51.203Z,96.60
2023-01-13T03:40:24.920Z,96.40
2023-01-13T03:43:16.424Z,96.50
2023-01-13T03:45:50.248Z,96.40
2023-01-13T03:48:22.998Z,96.30
2023-01-13T03:51:10.639Z,96.40
2023-01-13T03:53:55.034Z,96.50
2023-01-13T03:56:28.333Z,96.40
2023-01-13T03:58:57.935Z,96.30
2023-01-13T04:01:32.463Z,96.40
2023-01-13T04:04:33.997Z,96.30
2023-01-13T04:07:12.052Z,96.30
2023-01-13T04:09:52.548Z,96.30
2023-01-13T04:12:28.060Z,96.00
2023-01-13T04:14:56.660Z,96.00
2023-01-13T04:17:24.799Z,96.10
2023-01-13T04:19:54.696Z,96.10
2023-01-13T04:22:24.988Z,96.00
2023-01-13T04:24:52.361Z,95.80
2023-01-13T04:27:22.766Z,96.20
2023-01-13T04:29:55.509Z,96.00
2023-01-13T04:32:23.377Z,96.00
2023-01-13T04:34:50.722Z,95.80
2023-01-13T04:37:18.421Z,95.60
2023-01-13T04:39:46.744Z,95.60
2023-01-13T04:42:16.372Z,95.40
2023-01-13T04:44:43.484Z,95.40
2023-01-13T04:47:10.737Z,95.40
2023-01-13T04:49:43.144Z,95.40
2023-01-13T04:52:10.371Z,95.40
2023-01-13T04:54:37.578Z,95.30
2023-01-13T04:57:09.597Z,95.40
2023-01-13T04:59:44.418Z,95.30
2023-01-13T05:02:15.207Z,95.20
2023-01-13T05:04:43.241Z,95.30
2023-01-13T05:07:12.994Z,95.30
2023-01-13T05:09:40.554Z,95.10
2023-01-13T05:12:32.272Z,95.00
2023-01-13T05:15:21.299Z,95.10
2023-01-13T05:17:48.931Z,95.00
2023-01-13T05:20:18.701Z,95.10
2023-01-13T05:23:05.114Z,95.20
2023-01-13T05:25:34.028Z,95.20
2023-01-13T05:28:01.628Z,95.10
2023-01-13T05:30:32.009Z,95.10
2023-01-13T05:33:01.861Z,95.20
2023-01-13T05:35:30.199Z,95.30
2023-01-13T05:37:57.737Z,95.20
2023-01-13T05:40:43.945Z,95.10
2023-01-13T05:43:28.876Z,95.30
2023-01-13T05:46:02.943Z,95.20
2023-01-13T05:48:32.998Z,95.00
2023-01-13T05:51:01.365Z,94.90
2023-01-13T05:53:29.553Z,94.90
2023-01-13T05:55:56.852Z,94.80
2023-01-13T05:58:28.094Z,94.80
2023-01-13T06:01:01.384Z,94.80
2023-01-13T06:03:29.092Z,94.70
2023-01-13T06:05:59.698Z,94.50
2023-01-13T06:08:27.445Z,94.50
2023-01-13T06:10:55.383Z,94.30
2023-01-13T06:13:25.843Z,94.40
2023-01-13T06:16:02.802Z,94.20
2023-01-13T06:18:30.231Z,94.30
2023-01-13T06:21:00.382Z,94.10
2023-01-13T06:23:28.486Z,94.20
2023-01-13T06:25:55.779Z,94.20
2023-01-13T06:28:23.000Z,94.20
2023-01-13T06:30:54.672Z,94.10
2023-01-13T06:33:28.502Z,94.20
2023-01-13T06:36:09.495Z,94.20
2023-01-13T06:38:41.517Z,94.30
2023-01-13T06:41:10.553Z,94.40
2023-01-13T06:43:40.456Z,94.30
2023-01-13T06:46:11.229Z,94.40
2023-01-13T06:48:38.352Z,94.40
2023-01-13T06:51:09.463Z,94.30
2023-01-13T06:53:38.078Z,94.20
2023-01-13T06:56:07.399Z,94.30
2023-01-13T06:58:35.142Z,94.30
2023-01-13T07:01:05.971Z,94.40
2023-01-13T07:03:39.099Z,94.60
2023-01-13T07:06:22.928Z,94.50
2023-01-13T07:08:50.569Z,94.70
2023-01-13T07:11:18.151Z,94.70
2023-01-13T07:14:14.254Z,94.80
2023-01-13T07:20:07.349Z,94.90
2023-01-13T07:22:56.255Z,94.80
2023-01-13T07:25:34.643Z,94.90
2023-01-13T07:28:02.296Z,94.70
2023-01-13T07:30:32.957Z,94.70
2023-01-13T07:33:00.616Z,94.70
2023-01-13T07:35:38.328Z,94.70
2023-01-13T07:38:17.405Z,94.50
2023-01-13T07:40:50.255Z,94.60
2023-01-13T07:43:33.027Z,94.60
2023-01-13T07:46:25.267Z,94.50
2023-01-13T07:48:52.526Z,94.40
2023-01-13T07:51:42.411Z,94.40
2023-01-13T07:54:15.703Z,94.60
2023-01-13T07:56:43.236Z,94.50
2023-01-13T07:59:16.111Z,94.40
2023-01-13T08:01:47.756Z,94.50
2023-01-13T08:04:18.359Z,94.30
2023-01-13T08:06:48.648Z,94.40
2023-01-13T08:09:21.660Z,94.40
2023-01-13T08:12:11.400Z,94.40
2023-01-13T08:16:20.049Z,94.40
2023-01-13T08:18:22.769Z,94.30
2023-01-13T08:21:39.902Z,94.40
2023-01-13T08:27:34.797Z,94.90
2023-01-13T08:30:16.935Z,95.10
2023-01-13T08:32:45.431Z,95.00
2023-01-13T08:35:20.291Z,95.00
2023-01-13T08:37:48.081Z,95.00
2023-01-13T08:40:19.632Z,94.80
2023-01-13T08:42:50.729Z,94.70
2023-01-13T08:45:20.999Z,94.40
2023-01-13T08:47:52.234Z,94.60
2023-01-13T08:50:22.345Z,94.40
2023-01-13T08:52:50.164Z,94.40
2023-01-13T08:55:20.398Z,94.20
2023-01-13T08:57:51.525Z,94.30
2023-01-13T09:00:20.951Z,94.60
2023-01-13T09:02:56.154Z,94.70
2023-01-13T09:05:27.458Z,94.80
2023-01-13T09:07:55.064Z,94.80
2023-01-13T09:10:36.189Z,94.90
2023-01-13T09:13:20.019Z,95.10
2023-01-13T09:15:52.637Z,95.20
2023-01-13T09:18:26.004Z,95.40
2023-01-13T09:23:44.377Z,95.60
2023-01-13T09:26:21.918Z,95.60
2023-01-13T09:29:45.334Z,95.70
2023-01-13T09:32:38.834Z,95.90
2023-01-13T09:35:11.110Z,96.00
2023-01-13T09:37:43.416Z,96.60
2023-01-13T09:40:23.017Z,96.70
2023-01-13T09:43:16.405Z,96.80
2023-01-13T09:46:06.085Z,96.90
2023-01-13T09:48:54.037Z,96.70
2023-01-13T09:52:32.933Z,96.90
2023-01-13T09:55:41.000Z,97.20
2023-01-13T09:58:47.505Z,97.30
2023-01-13T10:01:41.767Z,97.60
2023-01-13T10:08:14.944Z,98.10
2023-01-13T10:14:58.397Z,97.90
2023-01-13T10:18:32.009Z,97.50
2023-01-13T10:21:38.739Z,97.50
2023-01-13T10:24:40.424Z,97.60
2023-01-13T10:27:34.816Z,97.90
2023-01-13T10:30:34.013Z,98.10
2023-01-13T10:37:12.559Z,98.10
2023-01-13T10:39:52.212Z,98.40
2023-01-13T10:42:23.033Z,98.60
2023-01-13T10:45:03.047Z,98.70
2023-01-13T10:47:41.437Z,98.80
2023-01-13T10:50:33.971Z,98.80
2023-01-13T10:53:23.615Z,98.90
2023-01-13T10:56:25.295Z,99.20
2023-01-13T10:59:24.829Z,99.00
2023-01-13T11:02:25.816Z,99.30
2023-01-13T11:05:25.196Z,99.20
2023-01-13T11:08:48.417Z,99.10
2023-01-13T11:11:45.285Z,99.30
2023-01-13T11:14:44.171Z,99.50
2023-01-13T11:17:48.212Z,99.20
2023-01-13T11:20:39.487Z,99.00
2023-01-13T11:23:39.530Z,99.00
2023-01-13T11:26:50.613Z,99.00
2023-01-13T11:29:31.293Z,99.20
2023-01-13T11:32:18.883Z,98.90
2023-01-13T11:35:23.448Z,99.20
2023-01-13T11:38:07.835Z,98.90
2023-01-13T11:40:47.672Z,99.00
2023-01-13T11:43:35.653Z,99.10
2023-01-13T11:46:07.275Z,99.00
2023-01-13T11:48:45.792Z,98.90
2023-01-13T11:51:34.917Z,99.60
2023-01-13T11:55:07.407Z,98.90
2023-01-13T11:57:59.282Z,98.70
2023-01-13T12:00:31.285Z,99.00
2023-01-13T12:03:23.678Z,99.00
2023-01-13T12:06:39.836Z,99.20
2023-01-13T12:09:21.395Z,99.10
2023-01-13T12:12:24.783Z,99.10
2023-01-13T12:15:22.274Z,99.30
2023-01-13T12:18:04.165Z,99.40
2023-01-13T12:21:09.310Z,99.30
2023-01-13T12:23:50.208Z,99.20
2023-01-13T12:26:18.587Z,99.10
2023-01-13T12:28:56.024Z,99.20
2023-01-13T12:31:34.284Z,99.20
2023-01-13T12:34:19.287Z,99.30
2023-01-13T12:37:01.156Z,99.50
2023-01-13T12:39:37.153Z,99.40
2023-01-13T12:42:45.256Z,99.20
2023-01-13T12:45:18.522Z,98.90
2023-01-13T12:47:48.878Z,98.90
2023-01-13T12:50:29.217Z,98.80
2023-01-13T12:52:58.251Z,98.90
2023-01-13T12:55:49.477Z,99.00
2023-01-13T12:58:18.350Z,99.00
2023-01-13T13:01:02.047Z,98.90
2023-01-13T13:03:40.107Z,98.90
2023-01-13T13:06:23.861Z,98.80
2023-01-13T13:09:04.263Z,98.60
2023-01-13T13:11:58.380Z,98.50
2023-01-13T13:14:39.104Z,98.50
2023-01-13T13:17:30.031Z,98.60
2023-01-13T13:19:59.944Z,98.40
2023-01-13T13:22:30.114Z,98.40
2023-01-13T13:25:02.125Z,98.20
2023-01-13T13:27:45.485Z,98.30
2023-01-13T13:30:38.461Z,98.40
2023-01-13T13:33:24.275Z,98.30
2023-01-13T13:36:10.331Z,98.30
2023-01-13T13:39:21.042Z,98.30
2023-01-13T13:42:14.466Z,98.40
2023-01-13T13:45:07.553Z,98.50
2023-01-13T13:47:38.627Z,98.80
2023-01-13T13:50:30.187Z,98.70
2023-01-13T13:53:10.982Z,98.80
2023-01-13T13:55:44.176Z,98.80
2023-01-13T13:58:17.845Z,98.80
2023-01-13T14:00:52.817Z,98.70
2023-01-13T14:03:28.835Z,98.70
2023-01-13T14:06:04.589Z,98.60
2023-01-13T14:08:36.005Z,98.60
2023-01-13T14:11:32.326Z,98.30
2023-01-13T14:14:06.907Z,98.30
2023-01-13T14:16:36.400Z,98.40
2023-01-13T14:19:04.057Z,98.50
2023-01-13T14:21:32.033Z,98.50
2023-01-13T14:24:00.805Z,98.50
2023-01-13T14:26:31.305Z,98.30
2023-01-13T14:31:54.223Z,98.30
2023-01-13T14:34:31.418Z,98.40
2023-01-13T14:37:03.437Z,98.30
2023-01-13T14:39:35.583Z,98.40
2023-01-13T14:42:11.391Z,98.50
2023-01-13T14:44:51.401Z,98.40
2023-01-13T14:47:30.651Z,98.40
2023-01-13T14:50:07.110Z,98.20
2023-01-13T14:52:46.926Z,98.10
2023-01-13T14:55:41.059Z,98.30
2023-01-13T14:58:27.916Z,98.40
2023-01-13T15:01:26.438Z,98.40
2023-01-13T15:03:54.081Z,98.50
2023-01-13T15:06:24.638Z,98.50
2023-01-13T15:09:01.106Z,98.50
2023-01-13T15:11:29.145Z,98.50
2023-01-13T15:14:03.371Z,98.70
2023-01-13T15:16:34.649Z,98.60
2023-01-13T15:19:05.103Z,98.50
2023-01-13T15:21:32.397Z,98.70
2023-01-13T15:24:05.809Z,98.50
2023-01-13T15:26:35.210Z,98.60
2023-01-13T15:29:05.591Z,98.60
2023-01-13T15:31:33.550Z,98.40
2023-01-13T15:34:03.928Z,98.50
2023-01-13T15:36:40.422Z,98.50
2023-01-13T15:39:14.461Z,98.50
2023-01-13T15:42:00.696Z,98.50
2023-01-13T15:44:49.799Z,98.50
2023-01-13T15:47:25.264Z,98.30
2023-01-13T15:49:55.226Z,98.20
2023-01-13T15:52:27.110Z,98.30
2023-01-13T15:54:55.637Z,98.20
2023-01-13T15:57:31.399Z,98.40
2023-01-13T16:00:04.577Z,98.40
2023-01-13T16:02:33.532Z,98.30
2023-01-13T16:05:00.946Z,98.10
2023-01-13T16:07:36.145Z,98.10
2023-01-13T16:10:05.444Z,98.20
2023-01-13T16:12:37.708Z,98.10
2023-01-13T16:15:10.392Z,98.30
2023-01-13T16:17:37.546Z,98.30
2023-01-13T16:20:05.700Z,98.20
2023-01-13T16:22:35.988Z,98.20
2023-01-13T16:25:03.754Z,98.40
2023-01-13T16:27:35.095Z,98.50
2023-01-13T16:30:23.181Z,98.60
2023-01-13T16:32:53.530Z,98.60
2023-01-13T16:35:21.334Z,98.60
2023-01-13T16:37:49.617Z,98.50
2023-01-13T16:40:32.635Z,98.50
2023-01-13T16:43:06.942Z,98.60
2023-01-13T16:45:38.409Z,98.60
2023-01-13T16:48:06.552Z,98.50
2023-01-13T16:50:40.927Z,98.40
2023-01-13T16:53:12.038Z,98.30
2023-01-13T16:55:41.560Z,98.40
2023-01-13T16:58:21.647Z,98.50
2023-01-13T17:00:49.137Z,98.40
2023-01-13T17:03:17.446Z,98.40
2023-01-13T17:05:57.769Z,98.50
2023-01-13T17:08:25.208Z,98.40
2023-01-13T17:11:02.113Z,98.20
2023-01-13T17:13:29.664Z,98.20
2023-01-13T17:15:57.452Z,98.20
2023-01-13T17:18:24.594Z,98.30
2023-01-13T17:20:56.550Z,98.20
2023-01-13T17:23:24.723Z,98.20
2023-01-13T17:25:57.841Z,98.20
2023-01-13T17:28:33.461Z,98.10
2023-01-13T17:31:03.571Z,98.40
2023-01-13T17:33:37.593Z,98.30
2023-01-13T17:36:08.089Z,98.30
2023-01-13T17:38:44.310Z,98.10
2023-01-13T17:41:14.779Z,98.10
2023-01-13T17:43:42.051Z,98.30
2023-01-13T17:46:11.283Z,98.10
2023-01-13T17:48:41.575Z,98.10
2023-01-13T17:51:16.608Z,98.10
2023-01-13T17:53:48.483Z,98.10
2023-01-13T17:56:25.357Z,98.10
2023-01-13T17:58:53.341Z,98.30
2023-01-13T18:01:33.154Z,98.10
2023-01-13T18:04:01.246Z,98.10
2023-01-13T18:06:31.678Z,98.10
2023-01-13T18:09:05.330Z,98.10
2023-01-13T18:11:32.881Z,98.10
2023-01-13T18:14:06.098Z,98.30
2023-01-13T18:16:40.005Z,98.20
2023-01-13T18:19:25.622Z,98.10
2023-01-13T18:22:11.621Z,98.00
2023-01-13T18:25:06.846Z,97.90
2023-01-13T18:27:42.805Z,97.80
2023-01-13T18:30:11.233Z,97.90
2023-01-13T18:32:38.701Z,97.80
2023-01-13T18:35:10.754Z,97.90
2023-01-13T18:37:40.759Z,97.90
2023-01-13T18:40:12.771Z,97.80
2023-01-13T18:42:56.156Z,97.90
2023-01-13T18:45:29.103Z,98.00
2023-01-13T18:47:59.540Z,97.90
2023-01-13T18:50:34.825Z,97.90
2023-01-13T18:53:03.112Z,97.70
2023-01-13T18:55:33.623Z,97.50
2023-01-13T18:58:01.079Z,97.50
2023-01-13T19:00:30.638Z,97.40
2023-01-13T19:05:34.781Z,97.40
2023-01-13T19:08:03.572Z,97.50
2023-01-13T19:10:32.865Z,97.40
2023-01-13T19:13:08.599Z,97.60
2023-01-13T19:15:44.773Z,97.50
2023-01-13T19:18:14.376Z,97.70
2023-01-13T19:20:51.105Z,97.90
2023-01-13T19:23:19.513Z,97.90
2023-01-13T19:25:49.338Z,97.90
2023-01-13T19:28:16.827Z,98.20
2023-01-13T19:30:43.918Z,98.20
2023-01-13T19:33:11.227Z,98.20
2023-01-13T19:35:38.521Z,98.20
2023-01-13T19:38:05.618Z,98.30
2023-01-13T19:40:35.271Z,98.40
2023-01-13T19:43:21.062Z,98.50
2023-01-13T19:45:51.539Z,98.50
2023-01-13T19:48:19.027Z,98.60
2023-01-13T19:50:48.718Z,98.70
2023-01-13T19:53:18.000Z,98.70
2023-01-13T19:56:02.773Z,98.70
2023-01-13T19:58:30.616Z,98.70
2023-01-13T20:01:11.829Z,98.70
2023-01-13T20:03:39.178Z,98.60
2023-01-13T20:06:12.016Z,98.60
2023-01-13T20:08:39.307Z,98.70
2023-01-13T20:11:22.024Z,98.90
2023-01-13T20:13:49.602Z,98.70
2023-01-13T20:16:16.834Z,98.80
2023-01-13T20:18:46.035Z,99.00
2023-01-13T20:21:15.526Z,99.00
2023-01-13T20:23:46.391Z,99.30
2023-01-13T20:26:13.732Z,99.10
2023-01-13T20:28:51.866Z,99.20
2023-01-13T20:31:19.291Z,99.20
2023-01-13T20:33:50.573Z,99.20
2023-01-13T20:36:31.449Z,99.00
2023-01-13T20:38:59.869Z,99.20
2023-01-13T20:41:49.406Z,99.30
2023-01-13T20:44:16.834Z,99.20
2023-01-13T20:46:54.485Z,99.40
2023-01-13T20:49:25.462Z,99.30
2023-01-13T20:51:54.569Z,99.50
2023-01-13T20:54:22.456Z,99.50
2023-01-13T20:56:49.585Z,99.80
2023-01-13T20:59:18.705Z,99.60
2023-01-13T21:01:46.337Z,99.40
2023-01-13T21:04:13.709Z,99.30
2023-01-13T21:06:42.747Z,99.60
2023-01-13T21:09:10.156Z,99.90
2023-01-13T21:11:56.486Z,99.90
2023-01-13T21:14:44.937Z,99.90
2023-01-13T21:17:33.379Z,99.90
2023-01-13T21:20:24.376Z,99.90
2023-01-13T21:22:54.742Z,99.90
2023-01-13T21:25:22.457Z,99.90
2023-01-13T21:27:52.957Z,99.90
2023-01-13T21:30:20.870Z,99.90
2023-01-13T21:32:51.042Z,99.90
2023-01-13T21:35:19.430Z,99.90
2023-01-13T21:37:49.385Z,99.90
2023-01-13T21:40:16.798Z,99.90
2023-01-13T21:43:30.126Z,99.70
2023-01-13T21:46:16.713Z,99.70
2023-01-13T21:48:51.557Z,99.70
2023-01-13T21:51:24.652Z,99.60
2023-01-13T21:53:52.680Z,99.80
2023-01-13T21:56:24.055Z,99.60
2023-01-13T21:58:59.948Z,99.80
2023-01-13T22:01:28.717Z,99.60
2023-01-13T22:04:15.611Z,99.60
2023-01-13T22:06:43.394Z,99.40
2023-01-13T22:09:11.133Z,99.70
2023-01-13T22:11:38.930Z,99.50
2023-01-13T22:14:09.575Z,99.50
2023-01-13T22:16:49.905Z,99.50
2023-01-13T22:19:21.220Z,99.50
2023-01-13T22:21:52.109Z,99.60
2023-01-13T22:24:19.529Z,99.70
2023-01-13T22:26:55.517Z,99.70
2023-01-13T22:29:24.601Z,99.80
2023-01-13T22:31:53.648Z,99.80
2023-01-13T22:34:21.317Z,99.70
2023-01-13T22:36:57.929Z,99.70
2023-01-13T22:39:28.424Z,99.60
2023-01-13T22:42:03.090Z,99.60
2023-01-13T22:44:32.704Z,99.60
2023-01-13T22:47:09.784Z,99.80
2023-01-13T22:49:37.286Z,99.70
2023-01-13T22:52:04.949Z,99.40
2023-01-13T22:54:36.756Z,99.30
2023-01-13T22:57:04.062Z,99.40
2023-01-13T22:59:32.239Z,99.20
2023-01-13T23:02:06.844Z,99.20
2023-01-13T23:04:40.080Z,98.90
2023-01-13T23:07:07.895Z,99.00
2023-01-13T23:09:35.507Z,98.70
2023-01-13T23:12:12.632Z,98.80
2023-01-13T23:14:40.458Z,98.80
2023-01-13T23:17:07.697Z,98.60
2023-01-13T23:19:42.767Z,98.30
2023-01-13T23:22:10.405Z,98.30
2023-01-13T23:24:37.633Z,98.30
2023-01-13T23:27:05.260Z,98.20
2023-01-13T23:29:32.904Z,97.90
2023-01-13T23:32:00.280Z,98.00
2023-01-13T23:34:30.282Z,97.90
2023-01-13T23:36:57.706Z,97.90
2023-01-13T23:39:25.506Z,97.80
2023-01-13T23:41:53.189Z,97.80
2023-01-13T23:44:20.534Z,97.60
2023-01-13T23:46:49.886Z,97.50
2023-01-13T23:49:17.493Z,97.50
2023-01-13T23:51:49.941Z,97.50
2023-01-13T23:54:17.918Z,97.50
2023-01-13T23:56:45.784Z,97.60
2023-01-13T23:59:15.316Z,97.40
